sensor_id;sensor_type;location;lat;lon;timestamp;temperature;humidity
83808;SHT31;73824;40.292;17.998;2024-01-16T00:00:08;12.29;83.74
83808;SHT31;73824;40.292;17.998;2024-01-16T00:02:34;12.24;83.94
83808;SHT31;73824;40.292;17.998;2024-01-16T00:05:00;12.17;84.01
83808;SHT31;73824;40.292;17.998;2024-01-16T00:07:25;12.14;84.33
83808;SHT31;73824;40.292;17.998;2024-01-16T00:09:51;12.12;84.53
83808;SHT31;73824;40.292;17.998;2024-01-16T00:12:18;12.02;84.58
83808;SHT31;73824;40.292;17.998;2024-01-16T00:14:44;11.93;85.13
83808;SHT31;73824;40.292;17.998;2024-01-16T00:17:09;11.96;85.01
83808;SHT31;73824;40.292;17.998;2024-01-16T00:19:35;11.99;84.92
83808;SHT31;73824;40.292;17.998;2024-01-16T00:22:01;11.99;84.93
83808;SHT31;73824;40.292;17.998;2024-01-16T00:24:28;11.81;85.37
83808;SHT31;73824;40.292;17.998;2024-01-16T00:26:53;11.76;85.54
83808;SHT31;73824;40.292;17.998;2024-01-16T00:29:19;11.71;85.54
83808;SHT31;73824;40.292;17.998;2024-01-16T00:31:45;11.52;85.82
83808;SHT31;73824;40.292;17.998;2024-01-16T00:34:11;11.35;86.27
83808;SHT31;73824;40.292;17.998;2024-01-16T00:36:36;11.26;86.57
83808;SHT31;73824;40.292;17.998;2024-01-16T00:39:02;11.14;86.83
83808;SHT31;73824;40.292;17.998;2024-01-16T00:41:28;11.13;87.17
83808;SHT31;73824;40.292;17.998;2024-01-16T00:43:54;11.07;87.55
83808;SHT31;73824;40.292;17.998;2024-01-16T00:46:19;11.14;88.18
83808;SHT31;73824;40.292;17.998;2024-01-16T00:48:45;11.34;88.12
83808;SHT31;73824;40.292;17.998;2024-01-16T00:51:11;11.30;87.95
83808;SHT31;73824;40.292;17.998;2024-01-16T00:53:41;11.39;87.74
83808;SHT31;73824;40.292;17.998;2024-01-16T00:56:06;11.38;88.03
83808;SHT31;73824;40.292;17.998;2024-01-16T00:58:32;11.39;87.98
83808;SHT31;73824;40.292;17.998;2024-01-16T01:00:57;11.39;88.06
83808;SHT31;73824;40.292;17.998;2024-01-16T01:03:24;11.37;87.90
83808;SHT31;73824;40.292;17.998;2024-01-16T01:05:50;11.30;87.93
83808;SHT31;73824;40.292;17.998;2024-01-16T01:08:16;11.23;88.18
83808;SHT31;73824;40.292;17.998;2024-01-16T01:10:41;11.20;88.14
83808;SHT31;73824;40.292;17.998;2024-01-16T01:13:07;11.20;88.20
83808;SHT31;73824;40.292;17.998;2024-01-16T01:15:32;11.20;88.31
83808;SHT31;73824;40.292;17.998;2024-01-16T01:17:58;11.20;88.18
83808;SHT31;73824;40.292;17.998;2024-01-16T01:20:23;11.13;87.90
83808;SHT31;73824;40.292;17.998;2024-01-16T01:22:52;11.07;88.17
83808;SHT31;73824;40.292;17.998;2024-01-16T01:25:17;10.99;88.46
83808;SHT31;73824;40.292;17.998;2024-01-16T01:27:43;11.06;88.64
83808;SHT31;73824;40.292;17.998;2024-01-16T01:30:09;10.92;88.48
83808;SHT31;73824;40.292;17.998;2024-01-16T01:32:38;10.86;88.85
83808;SHT31;73824;40.292;17.998;2024-01-16T01:35:05;10.88;88.97
83808;SHT31;73824;40.292;17.998;2024-01-16T01:37:30;10.83;89.31
83808;SHT31;73824;40.292;17.998;2024-01-16T01:39:56;10.92;88.93
83808;SHT31;73824;40.292;17.998;2024-01-16T01:42:21;10.77;89.02
83808;SHT31;73824;40.292;17.998;2024-01-16T01:44:47;10.88;89.28
83808;SHT31;73824;40.292;17.998;2024-01-16T01:47:13;10.80;89.29
83808;SHT31;73824;40.292;17.998;2024-01-16T01:49:39;10.62;89.26
83808;SHT31;73824;40.292;17.998;2024-01-16T01:52:06;10.61;89.50
83808;SHT31;73824;40.292;17.998;2024-01-16T01:54:34;10.52;89.61
83808;SHT31;73824;40.292;17.998;2024-01-16T01:57:01;10.51;89.70
83808;SHT31;73824;40.292;17.998;2024-01-16T01:59:27;10.46;90.12
83808;SHT31;73824;40.292;17.998;2024-01-16T02:01:55;10.40;90.17
83808;SHT31;73824;40.292;17.998;2024-01-16T02:04:21;10.40;90.16
83808;SHT31;73824;40.292;17.998;2024-01-16T02:06:47;10.45;90.02
83808;SHT31;73824;40.292;17.998;2024-01-16T02:09:13;10.38;89.88
83808;SHT31;73824;40.292;17.998;2024-01-16T02:11:39;10.38;90.02
83808;SHT31;73824;40.292;17.998;2024-01-16T02:14:05;10.27;90.09
83808;SHT31;73824;40.292;17.998;2024-01-16T02:16:36;10.15;90.24
83808;SHT31;73824;40.292;17.998;2024-01-16T02:19:03;10.07;90.35
83808;SHT31;73824;40.292;17.998;2024-01-16T02:21:35;10.08;90.53
83808;SHT31;73824;40.292;17.998;2024-01-16T02:24:00;10.10;90.53
83808;SHT31;73824;40.292;17.998;2024-01-16T02:26:26;10.07;90.69
83808;SHT31;73824;40.292;17.998;2024-01-16T02:28:52;10.05;90.77
83808;SHT31;73824;40.292;17.998;2024-01-16T02:31:18;10.07;90.92
83808;SHT31;73824;40.292;17.998;2024-01-16T02:33:44;10.07;90.95
83808;SHT31;73824;40.292;17.998;2024-01-16T02:36:09;10.07;91.16
83808;SHT31;73824;40.292;17.998;2024-01-16T02:38:35;10.05;91.22
83808;SHT31;73824;40.292;17.998;2024-01-16T02:41:00;10.01;91.24
83808;SHT31;73824;40.292;17.998;2024-01-16T02:43:26;10.01;91.33
83808;SHT31;73824;40.292;17.998;2024-01-16T02:45:52;10.11;91.41
83808;SHT31;73824;40.292;17.998;2024-01-16T02:48:18;10.08;91.31
83808;SHT31;73824;40.292;17.998;2024-01-16T02:50:43;10.03;91.33
83808;SHT31;73824;40.292;17.998;2024-01-16T02:53:09;10.10;91.37
83808;SHT31;73824;40.292;17.998;2024-01-16T02:55:34;10.10;91.10
83808;SHT31;73824;40.292;17.998;2024-01-16T02:58:00;10.07;90.91
83808;SHT31;73824;40.292;17.998;2024-01-16T03:00:25;10.00;91.07
83808;SHT31;73824;40.292;17.998;2024-01-16T03:02:51;9.94;91.31
83808;SHT31;73824;40.292;17.998;2024-01-16T03:05:17;10.05;91.55
83808;SHT31;73824;40.292;17.998;2024-01-16T03:07:42;10.14;91.62
83808;SHT31;73824;40.292;17.998;2024-01-16T03:10:08;10.11;91.72
83808;SHT31;73824;40.292;17.998;2024-01-16T03:12:33;10.14;91.71
83808;SHT31;73824;40.292;17.998;2024-01-16T03:14:59;10.11;91.81
83808;SHT31;73824;40.292;17.998;2024-01-16T03:17:24;10.14;91.83
83808;SHT31;73824;40.292;17.998;2024-01-16T03:19:51;10.14;91.88
83808;SHT31;73824;40.292;17.998;2024-01-16T03:22:16;10.20;92.12
83808;SHT31;73824;40.292;17.998;2024-01-16T03:24:42;10.27;92.22
83808;SHT31;73824;40.292;17.998;2024-01-16T03:27:07;10.40;92.34
83808;SHT31;73824;40.292;17.998;2024-01-16T03:29:33;10.56;92.25
83808;SHT31;73824;40.292;17.998;2024-01-16T03:31:59;10.52;92.24
83808;SHT31;73824;40.292;17.998;2024-01-16T03:34:25;10.55;92.20
83808;SHT31;73824;40.292;17.998;2024-01-16T03:36:50;10.42;92.24
83808;SHT31;73824;40.292;17.998;2024-01-16T03:39:16;10.38;92.35
83808;SHT31;73824;40.292;17.998;2024-01-16T03:41:41;10.34;92.54
83808;SHT31;73824;40.292;17.998;2024-01-16T03:44:07;10.35;92.44
83808;SHT31;73824;40.292;17.998;2024-01-16T03:46:32;10.32;92.35
83808;SHT31;73824;40.292;17.998;2024-01-16T03:48:58;10.01;91.77
83808;SHT31;73824;40.292;17.998;2024-01-16T03:51:23;9.84;91.41
83808;SHT31;73824;40.292;17.998;2024-01-16T03:53:49;9.70;91.39
83808;SHT31;73824;40.292;17.998;2024-01-16T03:56:15;9.67;91.38
83808;SHT31;73824;40.292;17.998;2024-01-16T03:58:41;9.57;91.51
83808;SHT31;73824;40.292;17.998;2024-01-16T04:01:07;9.45;91.57
83808;SHT31;73824;40.292;17.998;2024-01-16T04:03:32;9.39;91.75
83808;SHT31;73824;40.292;17.998;2024-01-16T04:05:59;9.27;91.91
83808;SHT31;73824;40.292;17.998;2024-01-16T04:08:24;9.31;92.09
83808;SHT31;73824;40.292;17.998;2024-01-16T04:10:52;9.22;92.24
83808;SHT31;73824;40.292;17.998;2024-01-16T04:13:18;9.18;92.35
83808;SHT31;73824;40.292;17.998;2024-01-16T04:15:43;9.24;92.44
83808;SHT31;73824;40.292;17.998;2024-01-16T04:18:10;9.29;93.04
83808;SHT31;73824;40.292;17.998;2024-01-16T04:20:35;9.21;92.74
83808;SHT31;73824;40.292;17.998;2024-01-16T04:23:01;9.14;92.80
83808;SHT31;73824;40.292;17.998;2024-01-16T04:25:26;9.10;92.75
83808;SHT31;73824;40.292;17.998;2024-01-16T04:27:52;9.03;92.76
83808;SHT31;73824;40.292;17.998;2024-01-16T04:30:18;9.01;92.82
83808;SHT31;73824;40.292;17.998;2024-01-16T04:32:45;8.97;92.87
83808;SHT31;73824;40.292;17.998;2024-01-16T04:35:11;8.94;92.93
83808;SHT31;73824;40.292;17.998;2024-01-16T04:37:36;8.97;93.01
83808;SHT31;73824;40.292;17.998;2024-01-16T04:40:02;8.94;93.05
83808;SHT31;73824;40.292;17.998;2024-01-16T04:42:27;8.92;93.15
83808;SHT31;73824;40.292;17.998;2024-01-16T04:44:53;8.92;93.16
83808;SHT31;73824;40.292;17.998;2024-01-16T04:47:19;8.96;93.21
83808;SHT31;73824;40.292;17.998;2024-01-16T04:49:45;8.97;93.23
83808;SHT31;73824;40.292;17.998;2024-01-16T04:52:10;9.01;93.31
83808;SHT31;73824;40.292;17.998;2024-01-16T04:54:36;9.05;93.23
83808;SHT31;73824;40.292;17.998;2024-01-16T04:57:01;9.01;93.14
83808;SHT31;73824;40.292;17.998;2024-01-16T04:59:27;8.97;93.18
83808;SHT31;73824;40.292;17.998;2024-01-16T05:01:52;8.90;93.19
83808;SHT31;73824;40.292;17.998;2024-01-16T05:04:18;8.83;93.15
83808;SHT31;73824;40.292;17.998;2024-01-16T05:06:43;8.81;93.18
83808;SHT31;73824;40.292;17.998;2024-01-16T05:09:09;8.76;93.26
83808;SHT31;73824;40.292;17.998;2024-01-16T05:11:35;8.73;93.27
83808;SHT31;73824;40.292;17.998;2024-01-16T05:14:00;8.69;93.32
83808;SHT31;73824;40.292;17.998;2024-01-16T05:16:27;8.64;93.35
83808;SHT31;73824;40.292;17.998;2024-01-16T05:18:53;8.64;93.38
83808;SHT31;73824;40.292;17.998;2024-01-16T05:21:19;8.61;93.41
83808;SHT31;73824;40.292;17.998;2024-01-16T05:23:45;8.61;93.45
83808;SHT31;73824;40.292;17.998;2024-01-16T05:26:10;8.57;93.42
83808;SHT31;73824;40.292;17.998;2024-01-16T05:28:36;8.56;93.47
83808;SHT31;73824;40.292;17.998;2024-01-16T05:31:01;8.53;93.44
83808;SHT31;73824;40.292;17.998;2024-01-16T05:33:27;8.48;93.49
83808;SHT31;73824;40.292;17.998;2024-01-16T05:35:53;8.46;93.54
83808;SHT31;73824;40.292;17.998;2024-01-16T05:38:18;8.49;93.51
83808;SHT31;73824;40.292;17.998;2024-01-16T05:40:44;8.46;93.44
83808;SHT31;73824;40.292;17.998;2024-01-16T05:43:09;8.32;93.34
83808;SHT31;73824;40.292;17.998;2024-01-16T05:45:34;8.29;93.23
83808;SHT31;73824;40.292;17.998;2024-01-16T05:48:00;8.22;93.18
83808;SHT31;73824;40.292;17.998;2024-01-16T05:50:25;8.16;93.17
83808;SHT31;73824;40.292;17.998;2024-01-16T05:52:51;8.11;93.17
83808;SHT31;73824;40.292;17.998;2024-01-16T05:55:16;8.08;93.16
83808;SHT31;73824;40.292;17.998;2024-01-16T05:57:42;8.06;93.12
83808;SHT31;73824;40.292;17.998;2024-01-16T06:00:09;8.09;93.20
83808;SHT31;73824;40.292;17.998;2024-01-16T06:02:35;8.21;93.08
83808;SHT31;73824;40.292;17.998;2024-01-16T06:05:00;8.18;93.06
83808;SHT31;73824;40.292;17.998;2024-01-16T06:07:26;8.24;93.02
83808;SHT31;73824;40.292;17.998;2024-01-16T06:09:51;8.26;92.91
83808;SHT31;73824;40.292;17.998;2024-01-16T06:12:17;8.31;92.98
83808;SHT31;73824;40.292;17.998;2024-01-16T06:14:42;8.43;92.70
83808;SHT31;73824;40.292;17.998;2024-01-16T06:17:08;8.39;92.72
83808;SHT31;73824;40.292;17.998;2024-01-16T06:19:34;8.42;92.66
83808;SHT31;73824;40.292;17.998;2024-01-16T06:21:59;8.43;92.69
83808;SHT31;73824;40.292;17.998;2024-01-16T06:24:25;8.46;92.73
83808;SHT31;73824;40.292;17.998;2024-01-16T06:26:51;8.52;92.64
83808;SHT31;73824;40.292;17.998;2024-01-16T06:29:16;8.57;92.57
83808;SHT31;73824;40.292;17.998;2024-01-16T06:31:42;8.64;92.50
83808;SHT31;73824;40.292;17.998;2024-01-16T06:34:07;8.74;92.32
83808;SHT31;73824;40.292;17.998;2024-01-16T06:36:34;8.79;92.17
83808;SHT31;73824;40.292;17.998;2024-01-16T06:38:59;8.88;91.76
83808;SHT31;73824;40.292;17.998;2024-01-16T06:41:25;9.05;91.04
83808;SHT31;73824;40.292;17.998;2024-01-16T06:43:50;9.22;91.23
83808;SHT31;73824;40.292;17.998;2024-01-16T06:46:16;9.67;90.82
83808;SHT31;73824;40.292;17.998;2024-01-16T06:48:41;10.63;89.92
83808;SHT31;73824;40.292;17.998;2024-01-16T06:51:07;11.68;86.14
83808;SHT31;73824;40.292;17.998;2024-01-16T06:53:33;11.75;84.93
83808;SHT31;73824;40.292;17.998;2024-01-16T06:55:58;11.34;82.90
83808;SHT31;73824;40.292;17.998;2024-01-16T06:58:24;11.13;82.91
83808;SHT31;73824;40.292;17.998;2024-01-16T07:00:49;10.97;83.42
83808;SHT31;73824;40.292;17.998;2024-01-16T07:03:15;10.99;83.64
83808;SHT31;73824;40.292;17.998;2024-01-16T07:05:42;10.95;83.33
83808;SHT31;73824;40.292;17.998;2024-01-16T07:08:08;11.16;82.37
83808;SHT31;73824;40.292;17.998;2024-01-16T07:10:34;11.34;82.81
83808;SHT31;73824;40.292;17.998;2024-01-16T07:13:01;11.45;82.67
83808;SHT31;73824;40.292;17.998;2024-01-16T07:15:27;11.64;82.54
83808;SHT31;73824;40.292;17.998;2024-01-16T07:17:52;11.82;82.61
83808;SHT31;73824;40.292;17.998;2024-01-16T07:20:18;11.79;79.70
83808;SHT31;73824;40.292;17.998;2024-01-16T07:22:43;12.07;79.85
83808;SHT31;73824;40.292;17.998;2024-01-16T07:25:09;13.12;78.80
83808;SHT31;73824;40.292;17.998;2024-01-16T07:27:34;14.95;72.07
83808;SHT31;73824;40.292;17.998;2024-01-16T07:30:01;16.94;68.31
83808;SHT31;73824;40.292;17.998;2024-01-16T07:32:26;19.88;64.72
83808;SHT31;73824;40.292;17.998;2024-01-16T07:34:52;22.16;47.60
83808;SHT31;73824;40.292;17.998;2024-01-16T07:37:18;23.89;46.00
83808;SHT31;73824;40.292;17.998;2024-01-16T07:39:44;25.65;41.06
83808;SHT31;73824;40.292;17.998;2024-01-16T07:42:09;27.18;37.50
83808;SHT31;73824;40.292;17.998;2024-01-16T07:44:36;27.22;33.66
83808;SHT31;73824;40.292;17.998;2024-01-16T07:47:01;28.43;34.80
83808;SHT31;73824;40.292;17.998;2024-01-16T07:49:27;29.59;33.61
83808;SHT31;73824;40.292;17.998;2024-01-16T07:51:52;30.45;32.52
83808;SHT31;73824;40.292;17.998;2024-01-16T07:54:18;31.33;29.93
83808;SHT31;73824;40.292;17.998;2024-01-16T07:56:43;31.10;29.87
83808;SHT31;73824;40.292;17.998;2024-01-16T07:59:09;32.14;29.05
83808;SHT31;73824;40.292;17.998;2024-01-16T08:01:35;32.33;27.42
83808;SHT31;73824;40.292;17.998;2024-01-16T08:04:00;32.82;27.97
83808;SHT31;73824;40.292;17.998;2024-01-16T08:06:26;33.04;27.04
83808;SHT31;73824;40.292;17.998;2024-01-16T08:08:52;32.89;26.60
83808;SHT31;73824;40.292;17.998;2024-01-16T08:11:18;33.45;26.91
83808;SHT31;73824;40.292;17.998;2024-01-16T08:13:44;34.02;26.02
83808;SHT31;73824;40.292;17.998;2024-01-16T08:16:10;33.71;26.40
83808;SHT31;73824;40.292;17.998;2024-01-16T08:18:36;34.70;24.53
83808;SHT31;73824;40.292;17.998;2024-01-16T08:21:02;34.14;25.07
83808;SHT31;73824;40.292;17.998;2024-01-16T08:23:27;33.18;25.82
83808;SHT31;73824;40.292;17.998;2024-01-16T08:25:53;33.89;25.92
83808;SHT31;73824;40.292;17.998;2024-01-16T08:28:18;34.46;24.58
83808;SHT31;73824;40.292;17.998;2024-01-16T08:30:45;34.62;25.65
83808;SHT31;73824;40.292;17.998;2024-01-16T08:33:11;35.38;24.08
83808;SHT31;73824;40.292;17.998;2024-01-16T08:35:37;35.61;24.28
83808;SHT31;73824;40.292;17.998;2024-01-16T08:38:03;35.85;24.21
83808;SHT31;73824;40.292;17.998;2024-01-16T08:40:28;36.41;24.12
83808;SHT31;73824;40.292;17.998;2024-01-16T08:42:54;36.62;23.21
83808;SHT31;73824;40.292;17.998;2024-01-16T08:45:22;37.22;22.16
83808;SHT31;73824;40.292;17.998;2024-01-16T08:47:48;37.17;22.83
83808;SHT31;73824;40.292;17.998;2024-01-16T08:50:14;36.81;22.41
83808;SHT31;73824;40.292;17.998;2024-01-16T08:52:40;36.02;23.60
83808;SHT31;73824;40.292;17.998;2024-01-16T08:55:06;36.15;22.57
83808;SHT31;73824;40.292;17.998;2024-01-16T08:57:31;34.46;23.97
83808;SHT31;73824;40.292;17.998;2024-01-16T08:59:57;34.92;24.04
83808;SHT31;73824;40.292;17.998;2024-01-16T09:02:22;35.17;23.29
83808;SHT31;73824;40.292;17.998;2024-01-16T09:04:49;34.53;23.51
83808;SHT31;73824;40.292;17.998;2024-01-16T09:07:18;33.16;24.46
83808;SHT31;73824;40.292;17.998;2024-01-16T09:09:44;33.15;25.43
83808;SHT31;73824;40.292;17.998;2024-01-16T09:12:09;33.77;24.45
83808;SHT31;73824;40.292;17.998;2024-01-16T09:14:35;32.81;24.79
83808;SHT31;73824;40.292;17.998;2024-01-16T09:17:01;32.56;25.41
83808;SHT31;73824;40.292;17.998;2024-01-16T09:19:26;32.89;25.02
83808;SHT31;73824;40.292;17.998;2024-01-16T09:21:52;31.88;26.14
83808;SHT31;73824;40.292;17.998;2024-01-16T09:24:17;31.89;25.21
83808;SHT31;73824;40.292;17.998;2024-01-16T09:26:44;30.53;26.50
83808;SHT31;73824;40.292;17.998;2024-01-16T09:29:10;29.50;28.92
83808;SHT31;73824;40.292;17.998;2024-01-16T09:31:36;29.32;29.49
83808;SHT31;73824;40.292;17.998;2024-01-16T09:34:03;29.09;28.98
83808;SHT31;73824;40.292;17.998;2024-01-16T09:36:29;27.98;30.06
83808;SHT31;73824;40.292;17.998;2024-01-16T09:38:54;27.98;31.12
83808;SHT31;73824;40.292;17.998;2024-01-16T09:41:20;27.06;31.99
83808;SHT31;73824;40.292;17.998;2024-01-16T09:43:47;26.89;32.85
83808;SHT31;73824;40.292;17.998;2024-01-16T09:46:14;26.02;34.26
83808;SHT31;73824;40.292;17.998;2024-01-16T09:48:41;23.24;38.67
83808;SHT31;73824;40.292;17.998;2024-01-16T09:51:10;21.27;42.65
83808;SHT31;73824;40.292;17.998;2024-01-16T09:53:40;20.45;44.63
83808;SHT31;73824;40.292;17.998;2024-01-16T09:56:11;19.92;44.87
83808;SHT31;73824;40.292;17.998;2024-01-16T09:58:39;19.43;45.76
83808;SHT31;73824;40.292;17.998;2024-01-16T10:01:05;19.36;46.18
83808;SHT31;73824;40.292;17.998;2024-01-16T10:03:31;19.40;47.01
83808;SHT31;73824;40.292;17.998;2024-01-16T10:06:04;19.37;45.48
83808;SHT31;73824;40.292;17.998;2024-01-16T10:08:31;19.36;45.97
83808;SHT31;73824;40.292;17.998;2024-01-16T10:10:57;19.18;46.63
83808;SHT31;73824;40.292;17.998;2024-01-16T10:13:23;18.83;46.73
83808;SHT31;73824;40.292;17.998;2024-01-16T10:15:49;18.99;46.96
83808;SHT31;73824;40.292;17.998;2024-01-16T10:18:29;19.02;47.60
83808;SHT31;73824;40.292;17.998;2024-01-16T10:20:59;18.92;47.83
83808;SHT31;73824;40.292;17.998;2024-01-16T10:23:26;18.75;48.84
83808;SHT31;73824;40.292;17.998;2024-01-16T10:26:11;18.87;48.30
83808;SHT31;73824;40.292;17.998;2024-01-16T10:28:41;18.75;48.46
83808;SHT31;73824;40.292;17.998;2024-01-16T10:31:11;18.75;48.38
83808;SHT31;73824;40.292;17.998;2024-01-16T10:33:37;18.91;48.39
83808;SHT31;73824;40.292;17.998;2024-01-16T10:36:08;18.81;49.22
83808;SHT31;73824;40.292;17.998;2024-01-16T10:38:35;18.72;49.08
83808;SHT31;73824;40.292;17.998;2024-01-16T10:41:14;18.77;49.50
83808;SHT31;73824;40.292;17.998;2024-01-16T10:43:40;18.63;49.39
83808;SHT31;73824;40.292;17.998;2024-01-16T10:46:14;18.58;50.30
83808;SHT31;73824;40.292;17.998;2024-01-16T10:48:42;18.68;49.79
83808;SHT31;73824;40.292;17.998;2024-01-16T10:51:13;18.58;48.48
83808;SHT31;73824;40.292;17.998;2024-01-16T10:53:43;18.57;48.99
83808;SHT31;73824;40.292;17.998;2024-01-16T10:56:12;18.58;48.79
83808;SHT31;73824;40.292;17.998;2024-01-16T10:58:41;18.37;49.90
83808;SHT31;73824;40.292;17.998;2024-01-16T11:01:10;18.36;50.84
83808;SHT31;73824;40.292;17.998;2024-01-16T11:03:55;18.50;50.75
83808;SHT31;73824;40.292;17.998;2024-01-16T11:06:22;18.46;49.86
83808;SHT31;73824;40.292;17.998;2024-01-16T11:08:49;18.29;50.75
83808;SHT31;73824;40.292;17.998;2024-01-16T11:11:15;18.34;50.96
83808;SHT31;73824;40.292;17.998;2024-01-16T11:13:41;18.34;50.60
83808;SHT31;73824;40.292;17.998;2024-01-16T11:16:10;18.36;51.17
83808;SHT31;73824;40.292;17.998;2024-01-16T11:18:36;18.34;51.13
83808;SHT31;73824;40.292;17.998;2024-01-16T11:21:05;18.37;50.34
83808;SHT31;73824;40.292;17.998;2024-01-16T11:23:31;18.36;50.26
83808;SHT31;73824;40.292;17.998;2024-01-16T11:25:57;18.09;50.16
83808;SHT31;73824;40.292;17.998;2024-01-16T11:28:27;17.95;51.12
83808;SHT31;73824;40.292;17.998;2024-01-16T11:30:54;17.89;51.09
83808;SHT31;73824;40.292;17.998;2024-01-16T11:35:58;18.02;50.44
83808;SHT31;73824;40.292;17.998;2024-01-16T11:38:25;18.09;51.22
83808;SHT31;73824;40.292;17.998;2024-01-16T11:40:53;18.10;51.44
83808;SHT31;73824;40.292;17.998;2024-01-16T11:46:07;18.17;51.09
83808;SHT31;73824;40.292;17.998;2024-01-16T11:48:35;18.08;51.65
83808;SHT31;73824;40.292;17.998;2024-01-16T11:51:23;17.90;51.12
83808;SHT31;73824;40.292;17.998;2024-01-16T11:53:48;17.95;50.67
83808;SHT31;73824;40.292;17.998;2024-01-16T11:56:44;17.93;49.33
83808;SHT31;73824;40.292;17.998;2024-01-16T11:59:39;17.88;50.69
83808;SHT31;73824;40.292;17.998;2024-01-16T12:02:10;17.77;51.34
83808;SHT31;73824;40.292;17.998;2024-01-16T12:04:37;17.78;51.60
83808;SHT31;73824;40.292;17.998;2024-01-16T12:07:03;17.85;51.54
83808;SHT31;73824;40.292;17.998;2024-01-16T12:09:29;17.93;50.58
83808;SHT31;73824;40.292;17.998;2024-01-16T12:11:59;17.78;51.51
83808;SHT31;73824;40.292;17.998;2024-01-16T12:14:26;17.88;50.57
83808;SHT31;73824;40.292;17.998;2024-01-16T12:16:52;17.82;51.20
83808;SHT31;73824;40.292;17.998;2024-01-16T12:19:18;17.83;51.39
83808;SHT31;73824;40.292;17.998;2024-01-16T12:21:45;17.82;51.77
83808;SHT31;73824;40.292;17.998;2024-01-16T12:24:11;17.79;52.27
83808;SHT31;73824;40.292;17.998;2024-01-16T12:26:38;17.68;52.68
83808;SHT31;73824;40.292;17.998;2024-01-16T12:29:04;17.62;51.80
83808;SHT31;73824;40.292;17.998;2024-01-16T12:31:30;17.52;52.40
83808;SHT31;73824;40.292;17.998;2024-01-16T12:34:24;17.62;51.95
83808;SHT31;73824;40.292;17.998;2024-01-16T12:37:04;17.62;52.43
83808;SHT31;73824;40.292;17.998;2024-01-16T12:39:31;17.44;53.88
83808;SHT31;73824;40.292;17.998;2024-01-16T12:41:56;17.42;53.85
83808;SHT31;73824;40.292;17.998;2024-01-16T12:44:27;17.48;53.93
83808;SHT31;73824;40.292;17.998;2024-01-16T12:46:56;17.48;53.48
83808;SHT31;73824;40.292;17.998;2024-01-16T12:49:22;17.41;53.00
83808;SHT31;73824;40.292;17.998;2024-01-16T12:51:48;17.45;53.20
83808;SHT31;73824;40.292;17.998;2024-01-16T12:54:16;17.38;53.45
83808;SHT31;73824;40.292;17.998;2024-01-16T12:56:42;17.40;53.19
83808;SHT31;73824;40.292;17.998;2024-01-16T12:59:12;17.37;53.09
83808;SHT31;73824;40.292;17.998;2024-01-16T13:01:42;17.37;53.37
83808;SHT31;73824;40.292;17.998;2024-01-16T13:04:08;17.52;53.14
83808;SHT31;73824;40.292;17.998;2024-01-16T13:06:34;17.57;53.36
83808;SHT31;73824;40.292;17.998;2024-01-16T13:09:07;17.48;53.75
83808;SHT31;73824;40.292;17.998;2024-01-16T13:12:04;17.37;53.62
83808;SHT31;73824;40.292;17.998;2024-01-16T13:14:30;17.31;53.99
83808;SHT31;73824;40.292;17.998;2024-01-16T13:16:55;17.20;53.70
83808;SHT31;73824;40.292;17.998;2024-01-16T13:19:21;17.14;54.32
83808;SHT31;73824;40.292;17.998;2024-01-16T13:21:50;17.10;54.26
83808;SHT31;73824;40.292;17.998;2024-01-16T13:24:16;17.12;54.33
83808;SHT31;73824;40.292;17.998;2024-01-16T13:26:43;17.16;54.11
83808;SHT31;73824;40.292;17.998;2024-01-16T13:29:08;17.19;54.28
83808;SHT31;73824;40.292;17.998;2024-01-16T13:31:34;17.23;54.08
83808;SHT31;73824;40.292;17.998;2024-01-16T13:34:00;17.13;54.92
83808;SHT31;73824;40.292;17.998;2024-01-16T13:36:25;17.06;54.08
83808;SHT31;73824;40.292;17.998;2024-01-16T13:38:51;16.94;55.28
83808;SHT31;73824;40.292;17.998;2024-01-16T13:41:17;16.89;55.31
83808;SHT31;73824;40.292;17.998;2024-01-16T13:43:42;16.93;55.34
83808;SHT31;73824;40.292;17.998;2024-01-16T13:46:08;16.85;55.83
83808;SHT31;73824;40.292;17.998;2024-01-16T13:48:35;16.79;55.18
83808;SHT31;73824;40.292;17.998;2024-01-16T13:51:02;16.85;55.27
83808;SHT31;73824;40.292;17.998;2024-01-16T13:53:29;16.77;55.69
83808;SHT31;73824;40.292;17.998;2024-01-16T13:55:55;16.64;54.88
83808;SHT31;73824;40.292;17.998;2024-01-16T13:58:20;16.69;55.67
83808;SHT31;73824;40.292;17.998;2024-01-16T14:00:46;16.73;56.70
83808;SHT31;73824;40.292;17.998;2024-01-16T14:03:11;16.62;57.87
83808;SHT31;73824;40.292;17.998;2024-01-16T14:05:37;16.49;58.50
83808;SHT31;73824;40.292;17.998;2024-01-16T14:08:05;16.41;59.30
83808;SHT31;73824;40.292;17.998;2024-01-16T14:10:31;16.38;59.57
83808;SHT31;73824;40.292;17.998;2024-01-16T14:12:56;16.35;59.87
83808;SHT31;73824;40.292;17.998;2024-01-16T14:15:22;16.25;60.33
83808;SHT31;73824;40.292;17.998;2024-01-16T14:17:53;16.21;60.72
83808;SHT31;73824;40.292;17.998;2024-01-16T14:20:21;16.10;60.65
83808;SHT31;73824;40.292;17.998;2024-01-16T14:22:55;16.00;60.90
83808;SHT31;73824;40.292;17.998;2024-01-16T14:25:21;15.98;61.35
83808;SHT31;73824;40.292;17.998;2024-01-16T14:27:58;16.03;61.20
83808;SHT31;73824;40.292;17.998;2024-01-16T14:30:24;16.06;61.25
83808;SHT31;73824;40.292;17.998;2024-01-16T14:32:51;16.04;61.33
83808;SHT31;73824;40.292;17.998;2024-01-16T14:35:16;15.91;61.41
83808;SHT31;73824;40.292;17.998;2024-01-16T14:37:43;15.90;61.04
83808;SHT31;73824;40.292;17.998;2024-01-16T14:40:09;15.85;60.79
83808;SHT31;73824;40.292;17.998;2024-01-16T14:42:41;15.83;61.17
83808;SHT31;73824;40.292;17.998;2024-01-16T14:45:16;15.77;61.48
83808;SHT31;73824;40.292;17.998;2024-01-16T14:47:42;15.56;61.97
83808;SHT31;73824;40.292;17.998;2024-01-16T14:50:08;15.49;62.49
83808;SHT31;73824;40.292;17.998;2024-01-16T14:52:35;15.42;63.09
83808;SHT31;73824;40.292;17.998;2024-01-16T14:55:04;15.31;63.67
83808;SHT31;73824;40.292;17.998;2024-01-16T14:57:32;15.24;63.60
83808;SHT31;73824;40.292;17.998;2024-01-16T15:00:04;15.04;64.18
83808;SHT31;73824;40.292;17.998;2024-01-16T15:02:39;14.97;64.43
83808;SHT31;73824;40.292;17.998;2024-01-16T15:05:04;14.87;64.94
83808;SHT31;73824;40.292;17.998;2024-01-16T15:07:31;14.83;65.04
83808;SHT31;73824;40.292;17.998;2024-01-16T15:09:57;14.76;65.13
83808;SHT31;73824;40.292;17.998;2024-01-16T15:12:22;14.70;65.76
83808;SHT31;73824;40.292;17.998;2024-01-16T15:14:48;14.62;66.09
83808;SHT31;73824;40.292;17.998;2024-01-16T15:17:13;14.52;66.27
83808;SHT31;73824;40.292;17.998;2024-01-16T15:19:38;14.39;66.62
83808;SHT31;73824;40.292;17.998;2024-01-16T15:22:05;14.33;67.08